Astor — C6JR3 — position and weather

sailwx.info

Track history (hours):
 
Tides and Currents Weather Stations Pressure Air Temp Water Temp Dewpoint Dewpoint Depression Visibility Wind Speed Wind Dir Waves Ship Positions

Astor

Operator: Passat Ship Management Ltd

Last reported at 2017-Jun-23 01:47 UTC. Time now 2017-Jun-29 01:57 UTC.
Position N 69°32' E 014°55'.

Length 176 m; draft 6.2 m.

Type: Ship. MMSI: 308214000.

Date/timePositionNaut miles runAvg speedWind from/ knotsBaromVisibWave heightAir tempDewpointWater temp
2017-Jun-23 01:47N 69°32' E 014°55'414.8
2017-Jun-23 01:30N 69°33' E 015°07'714.7
2017-Jun-23 01:00N 69°35' E 015°27'714.8
2017-Jun-23 00:30N 69°36' E 015°48'714.4
2017-Jun-23 00:00N 69°36' E 016°09'815.0
2017-Jun-22 23:30N 69°37' E 016°30'815.4
2017-Jun-22 23:00N 69°38' E 016°52'815.4
2017-Jun-22 22:30N 69°39' E 017°14'815.3
2017-Jun-22 22:00N 69°40' E 017°36'713.4
2017-Jun-22 21:30N 69°36' E 017°53'714.8
2017-Jun-22 21:00N 69°31' E 018°07'712.8
2017-Jun-22 20:30N 69°31' E 018°26'713.2
2017-Jun-22 20:00N 69°33' E 018°44'611.7
2017-Jun-22 19:29N 69°38' E 018°53'5 9.5
2017-Jun-22 19:00N 69°43' E 018°58'2 4.1
2017-Jun-22 18:30N 69°41' E 018°60'0 0.0
2017-Jun-22 18:00N 69°41' E 018°60'0 0.0
2017-Jun-22 17:30N 69°41' E 018°60'0 0.0
2017-Jun-22 17:00N 69°41' E 018°60'0 0.0
2017-Jun-22 16:30N 69°41' E 018°60'0 0.0
2017-Jun-22 15:59N 69°41' E 018°60'0 0.0
2017-Jun-22 15:26N 69°41' E 018°60'0 0.0
2017-Jun-22 14:59N 69°41' E 018°60'0 0.0
2017-Jun-22 13:58N 69°41' E 018°60'0 0.0
2017-Jun-22 13:28N 69°41' E 018°60'0 0.0
2017-Jun-22 12:58N 69°41' E 018°60'0 0.3
2017-Jun-22 12:30N 69°41' E 018°59'3 5.6
2017-Jun-22 12:00N 69°43' E 019°03'5 9.5
2017-Jun-22 11:30N 69°47' E 019°12'611.5
2017-Jun-22 11:00N 69°49' E 019°28'612.8
2017-Jun-22 10:30N 69°51' E 019°45'714.9
2017-Jun-22 10:00N 69°56' E 020°01'815.2
2017-Jun-22 09:30N 70°00' E 020°20'815.0
2017-Jun-22 09:00N 70°02' E 020°41'714.2
2017-Jun-22 08:30N 70°06' E 020°58'714.9
2017-Jun-22 08:01N 70°13' E 021°07'714.8
2017-Jun-22 07:30N 70°18' E 021°24'714.9
2017-Jun-22 07:00N 70°23' E 021°38'714.4
2017-Jun-22 06:30N 70°26' E 021°58'815.0
2017-Jun-22 06:00N 70°28' E 022°20'815.2
2017-Jun-22 05:30N 70°29' E 022°42'815.2
2017-Jun-22 05:00N 70°33' E 023°03'815.4
2017-Jun-22 04:30N 70°38' E 023°18'815.5
2017-Jun-22 04:00N 70°44' E 023°33'815.1
2017-Jun-22 03:30N 70°49' E 023°51'815.3
2017-Jun-22 03:00N 70°54' E 024°09'715.2
2017-Jun-22 02:30N 70°60' E 024°25'713.1
2017-Jun-22 02:00N 71°01' E 024°45'714.9
2017-Jun-22 01:30N 70°59' E 025°07'713.7
2017-Jun-22 00:59N 70°57' E 025°28'612.4
2017-Jun-22 00:30N 70°56' E 025°47'4 9.2
2017-Jun-22 00:00N 70°59' E 025°58'0 0.1
2017-Jun-21 23:30N 70°59' E 025°58'0 0.0
2017-Jun-21 23:00N 70°59' E 025°58'0 0.0
2017-Jun-21 22:30N 70°59' E 025°58'0 0.0
2017-Jun-21 21:59N 70°59' E 025°58'0 0.0
2017-Jun-21 21:29N 70°59' E 025°58'0 0.0
2017-Jun-21 20:59N 70°59' E 025°58'0 0.0
2017-Jun-21 20:29N 70°59' E 025°58'0 0.0
2017-Jun-21 19:59N 70°59' E 025°58'0 0.0
2017-Jun-21 19:28N 70°59' E 025°58'0 0.0
2017-Jun-21 18:58N 70°59' E 025°58'0 0.0
2017-Jun-21 18:28N 70°59' E 025°58'1 2.3
2017-Jun-21 18:00N 70°58' E 025°57'5 9.5
2017-Jun-21 17:30N 70°60' E 026°11'612.7
2017-Jun-21 17:00N 71°06' E 026°12'713.6
2017-Jun-21 16:30N 71°10' E 025°57'714.0
2017-Jun-21 16:00N 71°12' E 025°35'714.1
2017-Jun-21 15:30N 71°11' E 025°13'714.4
2017-Jun-21 15:00N 71°10' E 024°51'714.4
2017-Jun-21 14:30N 71°09' E 024°29'1514.5
2017-Jun-21 13:30N 71°07' E 023°45'714.7
2017-Jun-21 13:00N 71°04' E 023°23'815.2
2017-Jun-21 12:30N 71°02' E 023°01'715.3
2017-Jun-21 12:00N 70°60' E 022°39'815.4
2017-Jun-21 11:30N 70°57' E 022°17'815.4
2017-Jun-21 11:00N 70°54' E 021°55'2915.2
2017-Jun-21 09:06N 70°41' E 020°37'215.5
2017-Jun-21 09:00N 70°40' E 020°32'815.5
2017-Jun-21 08:30N 70°37' E 020°12'815.1
2017-Jun-21 08:00N 70°33' E 019°53'815.0
2017-Jun-21 07:30N 70°29' E 019°34'815.3
2017-Jun-21 07:00N 70°25' E 019°15'815.7
2017-Jun-21 06:30N 70°20' E 018°55'815.7
2017-Jun-21 06:00N 70°16' E 018°35'815.3
2017-Jun-21 05:30N 70°11' E 018°18'815.1
2017-Jun-21 05:00N 70°06' E 018°01'815.2
2017-Jun-21 04:30N 70°01' E 017°44'11514.9
2017-Jun-20 20:46N 68°34' E 014°12'30 2.5
2017-Jun-20 08:44N 68°08' E 013°34'89 8.4
2017-Jun-19 22:03N 66°46' E 011°57'112.5
2017-Jun-19 22:00N 66°46' E 011°56'612.7
2017-Jun-19 21:30N 66°40' E 011°47'713.0
2017-Jun-19 20:59N 66°35' E 011°37'613.2
2017-Jun-19 20:30N 66°30' E 011°29'24213.0
2017-Jun-19 01:57N 63°06' E 006°22'613.6
2017-Jun-19 01:30N 63°01' E 006°15'713.3
2017-Jun-19 01:00N 62°55' E 006°07'613.2
2017-Jun-19 00:30N 62°50' E 005°59'713.4
2017-Jun-18 23:59N 62°44' E 005°51'713.4
2017-Jun-18 23:30N 62°38' E 005°44'612.0
2017-Jun-18 23:00N 62°32' E 005°43'611.5
2017-Jun-18 22:30N 62°28' E 005°51'610.8
2017-Jun-18 22:00N 62°27' E 006°03'3 6.2
2017-Jun-18 21:30N 62°28' E 006°09'0 0.6
2017-Jun-18 20:58N 62°28' E 006°09'0 0.0
2017-Jun-18 20:28N 62°28' E 006°09'0 0.0
2017-Jun-18 20:00N 62°28' E 006°09'0 0.0
2017-Jun-18 19:30N 62°28' E 006°09'0 0.0
2017-Jun-18 19:00N 62°28' E 006°09'0 0.0
2017-Jun-18 18:30N 62°28' E 006°09'0 0.0
2017-Jun-18 18:00N 62°28' E 006°09'0 0.0
2017-Jun-18 17:29N 62°28' E 006°09'0 0.0
2017-Jun-18 16:59N 62°28' E 006°09'0 0.0
2017-Jun-18 16:29N 62°28' E 006°09'0 0.6
2017-Jun-18 16:00N 62°28' E 006°10'3 6.1
2017-Jun-18 15:30N 62°27' E 006°04'4 8.5
2017-Jun-18 14:59N 62°23' E 006°09'1010.6
2017-Jun-18 14:00N 62°17' E 006°27'611.1
2017-Jun-18 13:30N 62°12' E 006°34'1 1.0
2017-Jun-18 12:57N 62°12' E 006°35'0 0.4
2017-Jun-18 12:20N 62°12' E 006°35'1 1.8
2017-Jun-18 11:50N 62°12' E 006°33'411.0
2017-Jun-18 11:30N 62°15' E 006°29'714.6
2017-Jun-18 11:00N 62°22' E 006°22'714.5
2017-Jun-18 10:30N 62°23' E 006°07'612.8
2017-Jun-18 10:00N 62°27' E 005°55'714.9
2017-Jun-18 09:30N 62°30' E 005°41'815.6
2017-Jun-18 09:00N 62°26' E 005°26'816.0
2017-Jun-18 08:30N 62°21' E 005°13'816.1
2017-Jun-18 08:00N 62°15' E 005°01'815.9
2017-Jun-18 07:30N 62°09' E 004°50'815.5
2017-Jun-18 07:00N 62°02' E 004°42'815.4
2017-Jun-18 06:30N 61°55' E 004°33'815.3
2017-Jun-18 06:00N 61°48' E 004°26'3416.0
2017-Jun-18 03:54N 61°15' E 004°17'717.2
2017-Jun-18 03:30N 61°08' E 004°17'816.6
2017-Jun-18 03:00N 60°60' E 004°17'816.5
2017-Jun-18 02:30N 60°52' E 004°18'816.3
2017-Jun-18 02:00N 60°44' E 004°21'816.2
2017-Jun-18 01:30N 60°36' E 004°24'8416.3
2017-Jun-17 20:19N 59°12' E 004°47'516.0
2017-Jun-17 20:00N 59°09' E 004°55'815.4
2017-Jun-17 19:30N 59°07' E 005°10'815.3
2017-Jun-17 19:00N 59°07' E 005°25'611.6
2017-Jun-17 18:30N 59°04' E 005°34'612.5
2017-Jun-17 18:00N 58°59' E 005°42'1 1.5
2017-Jun-17 17:28N 58°59' E 005°43'0 0.0
2017-Jun-17 16:58N 58°59' E 005°43'0 0.0
2017-Jun-17 16:30N 58°59' E 005°43'0 0.0
2017-Jun-17 16:00N 58°59' E 005°43'0 0.0
2017-Jun-17 15:30N 58°59' E 005°43'0 0.0
2017-Jun-17 15:00N 58°59' E 005°43'0 0.0
2017-Jun-17 14:30N 58°59' E 005°43'2 2.0
2017-Jun-17 13:30N 59°00' E 005°41'4 8.8
2017-Jun-17 13:00N 59°02' E 005°33'713.9
2017-Jun-17 12:31N 58°55' E 005°32'612.3
2017-Jun-17 12:00N 58°49' E 005°27'713.9
2017-Jun-17 11:31N 58°43' E 005°21'816.3
2017-Jun-17 11:01N 58°35' E 005°21'816.9
2017-Jun-17 10:31N 58°27' E 005°22'816.5
2017-Jun-17 10:00N 58°19' E 005°27'816.7
2017-Jun-17 09:31N 58°11' E 005°33'816.6
2017-Jun-17 09:01N 58°03' E 005°38'2216.4
2017-Jun-17 07:41N 57°42' E 005°49'1316.0
2017-Jun-17 06:51N 57°29' E 005°56'11215.7
2017-Jun-16 23:42N 55°41' E 006°46'315.3
2017-Jun-16 23:30N 55°38' E 006°48'815.4
2017-Jun-16 23:00N 55°31' E 006°51'815.4
2017-Jun-16 22:30N 55°23' E 006°54'815.5
2017-Jun-16 22:01N 55°16' E 006°58'815.8
2017-Jun-16 21:31N 55°08' E 007°02'815.9
2017-Jun-16 20:58N 55°00' E 007°06'715.9
2017-Jun-16 20:30N 54°53' E 007°09'816.0
2017-Jun-16 20:00N 54°45' E 007°13'816.2
2017-Jun-16 19:31N 54°37' E 007°17'5613.3
2017-Jun-16 15:17N 53°49' E 008°07'413.1
2017-Jun-16 15:00N 53°46' E 008°10'1211.9
2017-Jun-16 14:00N 53°39' E 008°25'4 9.1
2017-Jun-16 13:31N 53°36' E 008°31'2 4.8
2017-Jun-16 12:59N 53°34' E 008°33'0 0.0
2017-Jun-16 12:30N 53°34' E 008°33'0 0.0
2017-Jun-16 11:59N 53°34' E 008°33'0 0.0
2017-Jun-16 11:28N 53°34' E 008°33'0 0.0
2017-Jun-16 10:58N 53°34' E 008°33'0 0.0
2017-Jun-16 10:28N 53°34' E 008°33'0 0.0
2017-Jun-16 09:58N 53°34' E 008°33'0 0.0
2017-Jun-16 09:28N 53°34' E 008°33'0 0.0
2017-Jun-16 09:00N 53°34' E 008°33'0 0.0
2017-Jun-16 08:30N 53°34' E 008°33'0 0.0
2017-Jun-16 07:57N 53°34' E 008°33'0 0.0
2017-Jun-16 07:30N 53°34' E 008°33'1 2.1
2017-Jun-16 07:00N 53°34' E 008°32'510.3
2017-Jun-16 06:30N 53°38' E 008°26'612.0
2017-Jun-16 06:00N 53°42' E 008°19'612.4
2017-Jun-16 05:30N 53°46' E 008°11'612.6
2017-Jun-16 05:00N 53°50' E 008°03'813.0
2017-Jun-16 04:25N 53°52' E 007°50'1112.0
2017-Jun-16 03:32N 53°59' E 007°36'114.5
2017-Jun-16 03:27N 53°60' E 007°36'715.6
2017-Jun-16 03:00N 54°06' E 007°30'3416.3
2017-Jun-16 00:53N 54°39' E 007°14'616.1
2017-Jun-16 00:30N 54°45' E 007°13'816.4
2017-Jun-16 00:01N 54°53' E 007°10'816.6
2017-Jun-15 23:30N 55°01' E 007°07'816.5
2017-Jun-15 23:01N 55°09' E 007°03'816.3
2017-Jun-15 22:30N 55°17' E 006°60'816.2
2017-Jun-15 22:01N 55°25' E 006°56'816.2
2017-Jun-15 21:30N 55°33' E 006°52'816.1
2017-Jun-15 21:01N 55°40' E 006°48'916.1
2017-Jun-15 20:27N 55°49' E 006°43'816.0
2017-Jun-15 19:59N 55°56' E 006°39'815.9
2017-Jun-15 19:27N 56°04' E 006°35'7815.7
2017-Jun-15 14:29N 57°19' E 005°53'4015.7
2017-Jun-15 11:56N 57°57' E 005°31'1115.6
2017-Jun-15 11:14N 58°07' E 005°25'615.5
2017-Jun-15 10:49N 58°13' E 005°21'515.7
2017-Jun-15 10:30N 58°18' E 005°17'814.9
2017-Jun-15 09:58N 58°26' E 005°16'715.4
2017-Jun-15 09:30N 58°33' E 005°18'714.9
2017-Jun-15 09:00N 58°40' E 005°21'714.3
2017-Jun-15 08:31N 58°47' E 005°24'713.2
2017-Jun-15 08:00N 58°52' E 005°31'612.5
2017-Jun-15 07:30N 58°59' E 005°33'4 8.0
2017-Jun-15 07:00N 59°02' E 005°37'611.8
2017-Jun-15 06:30N 59°01' E 005°49'714.5
2017-Jun-15 06:00N 58°56' E 005°60'3 6.8
2017-Jun-15 05:30N 58°55' E 006°06'5 9.0
2017-Jun-15 05:00N 58°59' E 006°12'2 4.8
2017-Jun-15 04:30N 58°57' E 006°08'4 8.0
2017-Jun-15 04:00N 58°54' E 006°03'510.5
2017-Jun-15 03:30N 58°58' E 005°56'611.7
2017-Jun-15 03:00N 59°02' E 005°48'510.8
2017-Jun-15 02:30N 59°02' E 005°37'611.6
2017-Jun-15 02:00N 59°06' E 005°29'510.3
2017-Jun-15 01:30N 59°04' E 005°20'611.6
2017-Jun-15 01:01N 59°02' E 005°09'611.6
2017-Jun-15 00:30N 59°06' E 005°01'713.0
2017-Jun-15 00:00N 59°10' E 004°50'2212.0
2017-Jun-14 22:12N 59°31' E 004°42'313.0
2017-Jun-14 22:00N 59°34' E 004°43'612.8
2017-Jun-14 21:30N 59°40' E 004°45'612.7
2017-Jun-14 21:00N 59°46' E 004°48'613.0
2017-Jun-14 20:30N 59°53' E 004°50'713.2
2017-Jun-14 20:00N 59°59' E 004°51'713.1
2017-Jun-14 19:30N 60°05' E 004°53'510.9
2017-Jun-14 19:00N 60°09' E 005°02'510.4
2017-Jun-14 18:30N 60°12' E 005°11'510.9
2017-Jun-14 18:00N 60°17' E 005°11'510.6
2017-Jun-14 17:30N 60°23' E 005°10'5 9.0
2017-Jun-14 17:00N 60°24' E 005°19'0 0.0
2017-Jun-14 16:30N 60°24' E 005°19'0 0.0
2017-Jun-14 16:00N 60°24' E 005°19'0 0.0
2017-Jun-14 15:29N 60°24' E 005°19'0 0.0
2017-Jun-14 14:59N 60°24' E 005°19'0 0.0
2017-Jun-14 13:59N 60°24' E 005°19'0 0.0
2017-Jun-14 13:29N 60°24' E 005°19'0 0.0
2017-Jun-14 12:58N 60°24' E 005°19'0 0.0
2017-Jun-14 12:28N 60°24' E 005°19'0 0.0
2017-Jun-14 11:58N 60°24' E 005°19'0 0.0
2017-Jun-14 11:28N 60°24' E 005°19'0 0.0
2017-Jun-14 10:58N 60°24' E 005°19'0 0.0
2017-Jun-14 10:30N 60°24' E 005°19'0 0.0
2017-Jun-14 10:00N 60°24' E 005°19'0 0.0
2017-Jun-14 09:30N 60°24' E 005°19'0 0.0
2017-Jun-14 09:00N 60°24' E 005°19'0 0.0
2017-Jun-14 08:23N 60°24' E 005°19'0 0.0
2017-Jun-14 07:59N 60°24' E 005°19'1 1.4
2017-Jun-14 07:30N 60°24' E 005°17'5 9.7
2017-Jun-14 07:00N 60°24' E 005°07'611.3
2017-Jun-14 06:30N 60°29' E 004°60'713.8
2017-Jun-14 06:00N 60°35' E 004°54'714.1
2017-Jun-14 05:30N 60°41' E 004°49'511.1
2017-Jun-14 05:00N 60°45' E 004°40'713.5
2017-Jun-14 04:31N 60°48' E 004°28'714.7
2017-Jun-14 04:00N 60°55' E 004°23'815.0
2017-Jun-14 03:30N 61°02' E 004°18'5214.1
2017-Jun-13 23:50N 61°54' E 004°25'515.5
2017-Jun-13 23:30N 61°58' E 004°31'815.4
2017-Jun-13 23:00N 62°05' E 004°40'815.3
2017-Jun-13 22:30N 62°11' E 004°50'714.8
2017-Jun-13 22:00N 62°17' E 005°00'714.7
2017-Jun-13 21:30N 62°22' E 005°11'714.9
2017-Jun-13 21:00N 62°26' E 005°24'715.0
2017-Jun-13 20:30N 62°30' E 005°38'713.8
2017-Jun-13 20:01N 62°28' E 005°52'611.9
2017-Jun-13 19:30N 62°25' E 006°03'713.1
2017-Jun-13 19:00N 62°24' E 006°17'714.0
2017-Jun-13 18:30N 62°25' E 006°32'713.7
2017-Jun-13 18:00N 62°27' E 006°47'612.2
2017-Jun-13 17:29N 62°23' E 006°55'713.7
2017-Jun-13 17:00N 62°16' E 007°01'713.4
2017-Jun-13 16:30N 62°10' E 007°00'4 1.7
2017-Jun-13 14:00N 62°07' E 007°07'2 4.4
2017-Jun-13 13:30N 62°06' E 007°11'0 0.1
2017-Jun-13 13:00N 62°06' E 007°11'0 0.0
2017-Jun-13 12:30N 62°06' E 007°11'0 0.0
2017-Jun-13 11:59N 62°06' E 007°11'0 0.0
2017-Jun-13 11:29N 62°06' E 007°11'0 0.0
2017-Jun-13 10:59N 62°06' E 007°11'0 0.0
2017-Jun-13 10:28N 62°06' E 007°11'0 0.0
2017-Jun-13 09:58N 62°06' E 007°11'0 0.0
2017-Jun-13 09:28N 62°06' E 007°11'0 0.0
2017-Jun-13 08:58N 62°06' E 007°11'0 0.1
2017-Jun-13 08:28N 62°06' E 007°11'0 0.0
2017-Jun-13 08:00N 62°06' E 007°11'0 0.0
2017-Jun-13 07:30N 62°06' E 007°11'2 4.2
2017-Jun-13 07:00N 62°07' E 007°07'5 9.0
2017-Jun-13 06:30N 62°07' E 006°57'612.6
2017-Jun-13 06:00N 62°13' E 007°01'713.8
2017-Jun-13 05:30N 62°20' E 006°57'713.8
2017-Jun-13 05:00N 62°26' E 006°51'714.2
2017-Jun-13 04:30N 62°26' E 006°37'815.0
2017-Jun-13 04:00N 62°24' E 006°21'714.5
2017-Jun-13 03:30N 62°24' E 006°05'612.4
2017-Jun-13 03:00N 62°27' E 005°55'713.7
2017-Jun-13 02:30N 62°32' E 005°43'815.2
2017-Jun-13 02:00N 62°39' E 005°46'  
Track history (hours):
 
Tides and Currents Weather Stations Pressure Air Temp Water Temp Dewpoint Dewpoint Depression Visibility Wind Speed Wind Dir Waves Ship Positions

Astor

Operator: Passat Ship Management Ltd

Last reported at 2017-Jun-23 01:47 UTC. Time now 2017-Jun-29 01:57 UTC.
Position N 69°32' E 014°55'.

Length 176 m; draft 6.2 m.

Type: Ship. MMSI: 308214000.

Date/timePositionNaut miles runAvg speedWind from/ knotsBaromVisibWave heightAir tempDewpointWater temp
2017-Jun-23 01:47N 69°32' E 014°55'414.8
2017-Jun-23 01:30N 69°33' E 015°07'714.7
2017-Jun-23 01:00N 69°35' E 015°27'714.8
2017-Jun-23 00:30N 69°36' E 015°48'714.4
2017-Jun-23 00:00N 69°36' E 016°09'815.0
2017-Jun-22 23:30N 69°37' E 016°30'815.4
2017-Jun-22 23:00N 69°38' E 016°52'815.4
2017-Jun-22 22:30N 69°39' E 017°14'815.3
2017-Jun-22 22:00N 69°40' E 017°36'713.4
2017-Jun-22 21:30N 69°36' E 017°53'714.8
2017-Jun-22 21:00N 69°31' E 018°07'712.8
2017-Jun-22 20:30N 69°31' E 018°26'713.2
2017-Jun-22 20:00N 69°33' E 018°44'611.7
2017-Jun-22 19:29N 69°38' E 018°53'5 9.5
2017-Jun-22 19:00N 69°43' E 018°58'2 4.1
2017-Jun-22 18:30N 69°41' E 018°60'0 0.0
2017-Jun-22 18:00N 69°41' E 018°60'0 0.0
2017-Jun-22 17:30N 69°41' E 018°60'0 0.0
2017-Jun-22 17:00N 69°41' E 018°60'0 0.0
2017-Jun-22 16:30N 69°41' E 018°60'0 0.0
2017-Jun-22 15:59N 69°41' E 018°60'0 0.0
2017-Jun-22 15:26N 69°41' E 018°60'0 0.0
2017-Jun-22 14:59N 69°41' E 018°60'0 0.0
2017-Jun-22 13:58N 69°41' E 018°60'0 0.0
2017-Jun-22 13:28N 69°41' E 018°60'0 0.0
2017-Jun-22 12:58N 69°41' E 018°60'0 0.3
2017-Jun-22 12:30N 69°41' E 018°59'3 5.6
2017-Jun-22 12:00N 69°43' E 019°03'5 9.5
2017-Jun-22 11:30N 69°47' E 019°12'611.5
2017-Jun-22 11:00N 69°49' E 019°28'612.8
2017-Jun-22 10:30N 69°51' E 019°45'714.9
2017-Jun-22 10:00N 69°56' E 020°01'815.2
2017-Jun-22 09:30N 70°00' E 020°20'815.0
2017-Jun-22 09:00N 70°02' E 020°41'714.2
2017-Jun-22 08:30N 70°06' E 020°58'714.9
2017-Jun-22 08:01N 70°13' E 021°07'714.8
2017-Jun-22 07:30N 70°18' E 021°24'714.9
2017-Jun-22 07:00N 70°23' E 021°38'714.4
2017-Jun-22 06:30N 70°26' E 021°58'815.0
2017-Jun-22 06:00N 70°28' E 022°20'815.2
2017-Jun-22 05:30N 70°29' E 022°42'815.2
2017-Jun-22 05:00N 70°33' E 023°03'815.4
2017-Jun-22 04:30N 70°38' E 023°18'815.5
2017-Jun-22 04:00N 70°44' E 023°33'815.1
2017-Jun-22 03:30N 70°49' E 023°51'815.3
2017-Jun-22 03:00N 70°54' E 024°09'715.2
2017-Jun-22 02:30N 70°60' E 024°25'713.1
2017-Jun-22 02:00N 71°01' E 024°45'714.9
2017-Jun-22 01:30N 70°59' E 025°07'713.7
2017-Jun-22 00:59N 70°57' E 025°28'612.4
2017-Jun-22 00:30N 70°56' E 025°47'4 9.2
2017-Jun-22 00:00N 70°59' E 025°58'0 0.1
2017-Jun-21 23:30N 70°59' E 025°58'0 0.0
2017-Jun-21 23:00N 70°59' E 025°58'0 0.0
2017-Jun-21 22:30N 70°59' E 025°58'0 0.0
2017-Jun-21 21:59N 70°59' E 025°58'0 0.0
2017-Jun-21 21:29N 70°59' E 025°58'0 0.0
2017-Jun-21 20:59N 70°59' E 025°58'0 0.0
2017-Jun-21 20:29N 70°59' E 025°58'0 0.0
2017-Jun-21 19:59N 70°59' E 025°58'0 0.0
2017-Jun-21 19:28N 70°59' E 025°58'0 0.0
2017-Jun-21 18:58N 70°59' E 025°58'0 0.0
2017-Jun-21 18:28N 70°59' E 025°58'1 2.3
2017-Jun-21 18:00N 70°58' E 025°57'5 9.5
2017-Jun-21 17:30N 70°60' E 026°11'612.7
2017-Jun-21 17:00N 71°06' E 026°12'713.6
2017-Jun-21 16:30N 71°10' E 025°57'714.0
2017-Jun-21 16:00N 71°12' E 025°35'714.1
2017-Jun-21 15:30N 71°11' E 025°13'714.4
2017-Jun-21 15:00N 71°10' E 024°51'714.4
2017-Jun-21 14:30N 71°09' E 024°29'1514.5
2017-Jun-21 13:30N 71°07' E 023°45'714.7
2017-Jun-21 13:00N 71°04' E 023°23'815.2
2017-Jun-21 12:30N 71°02' E 023°01'715.3
2017-Jun-21 12:00N 70°60' E 022°39'815.4
2017-Jun-21 11:30N 70°57' E 022°17'815.4
2017-Jun-21 11:00N 70°54' E 021°55'2915.2
2017-Jun-21 09:06N 70°41' E 020°37'215.5
2017-Jun-21 09:00N 70°40' E 020°32'815.5
2017-Jun-21 08:30N 70°37' E 020°12'815.1
2017-Jun-21 08:00N 70°33' E 019°53'815.0
2017-Jun-21 07:30N 70°29' E 019°34'815.3
2017-Jun-21 07:00N 70°25' E 019°15'815.7
2017-Jun-21 06:30N 70°20' E 018°55'815.7
2017-Jun-21 06:00N 70°16' E 018°35'815.3
2017-Jun-21 05:30N 70°11' E 018°18'815.1
2017-Jun-21 05:00N 70°06' E 018°01'815.2
2017-Jun-21 04:30N 70°01' E 017°44'11514.9
2017-Jun-20 20:46N 68°34' E 014°12'30 2.5
2017-Jun-20 08:44N 68°08' E 013°34'89 8.4
2017-Jun-19 22:03N 66°46' E 011°57'112.5
2017-Jun-19 22:00N 66°46' E 011°56'612.7
2017-Jun-19 21:30N 66°40' E 011°47'713.0
2017-Jun-19 20:59N 66°35' E 011°37'613.2
2017-Jun-19 20:30N 66°30' E 011°29'24213.0
2017-Jun-19 01:57N 63°06' E 006°22'613.6
2017-Jun-19 01:30N 63°01' E 006°15'713.3
2017-Jun-19 01:00N 62°55' E 006°07'613.2
2017-Jun-19 00:30N 62°50' E 005°59'713.4
2017-Jun-18 23:59N 62°44' E 005°51'713.4
2017-Jun-18 23:30N 62°38' E 005°44'612.0
2017-Jun-18 23:00N 62°32' E 005°43'611.5
2017-Jun-18 22:30N 62°28' E 005°51'610.8
2017-Jun-18 22:00N 62°27' E 006°03'3 6.2
2017-Jun-18 21:30N 62°28' E 006°09'0 0.6
2017-Jun-18 20:58N 62°28' E 006°09'0 0.0
2017-Jun-18 20:28N 62°28' E 006°09'0 0.0
2017-Jun-18 20:00N 62°28' E 006°09'0 0.0
2017-Jun-18 19:30N 62°28' E 006°09'0 0.0
2017-Jun-18 19:00N 62°28' E 006°09'0 0.0
2017-Jun-18 18:30N 62°28' E 006°09'0 0.0
2017-Jun-18 18:00N 62°28' E 006°09'0 0.0
2017-Jun-18 17:29N 62°28' E 006°09'0 0.0
2017-Jun-18 16:59N 62°28' E 006°09'0 0.0
2017-Jun-18 16:29N 62°28' E 006°09'0 0.6
2017-Jun-18 16:00N 62°28' E 006°10'3 6.1
2017-Jun-18 15:30N 62°27' E 006°04'4 8.5
2017-Jun-18 14:59N 62°23' E 006°09'1010.6
2017-Jun-18 14:00N 62°17' E 006°27'611.1
2017-Jun-18 13:30N 62°12' E 006°34'1 1.0
2017-Jun-18 12:57N 62°12' E 006°35'0 0.4
2017-Jun-18 12:20N 62°12' E 006°35'1 1.8
2017-Jun-18 11:50N 62°12' E 006°33'411.0
2017-Jun-18 11:30N 62°15' E 006°29'714.6
2017-Jun-18 11:00N 62°22' E 006°22'714.5
2017-Jun-18 10:30N 62°23' E 006°07'612.8
2017-Jun-18 10:00N 62°27' E 005°55'714.9
2017-Jun-18 09:30N 62°30' E 005°41'815.6
2017-Jun-18 09:00N 62°26' E 005°26'816.0
2017-Jun-18 08:30N 62°21' E 005°13'816.1
2017-Jun-18 08:00N 62°15' E 005°01'815.9
2017-Jun-18 07:30N 62°09' E 004°50'815.5
2017-Jun-18 07:00N 62°02' E 004°42'815.4
2017-Jun-18 06:30N 61°55' E 004°33'815.3
2017-Jun-18 06:00N 61°48' E 004°26'3416.0
2017-Jun-18 03:54N 61°15' E 004°17'717.2
2017-Jun-18 03:30N 61°08' E 004°17'816.6
2017-Jun-18 03:00N 60°60' E 004°17'816.5
2017-Jun-18 02:30N 60°52' E 004°18'816.3
2017-Jun-18 02:00N 60°44' E 004°21'816.2
2017-Jun-18 01:30N 60°36' E 004°24'8416.3
2017-Jun-17 20:19N 59°12' E 004°47'516.0
2017-Jun-17 20:00N 59°09' E 004°55'815.4
2017-Jun-17 19:30N 59°07' E 005°10'815.3
2017-Jun-17 19:00N 59°07' E 005°25'611.6
2017-Jun-17 18:30N 59°04' E 005°34'612.5
2017-Jun-17 18:00N 58°59' E 005°42'1 1.5
2017-Jun-17 17:28N 58°59' E 005°43'0 0.0
2017-Jun-17 16:58N 58°59' E 005°43'0 0.0
2017-Jun-17 16:30N 58°59' E 005°43'0 0.0
2017-Jun-17 16:00N 58°59' E 005°43'0 0.0
2017-Jun-17 15:30N 58°59' E 005°43'0 0.0
2017-Jun-17 15:00N 58°59' E 005°43'0 0.0
2017-Jun-17 14:30N 58°59' E 005°43'2 2.0
2017-Jun-17 13:30N 59°00' E 005°41'4 8.8
2017-Jun-17 13:00N 59°02' E 005°33'713.9
2017-Jun-17 12:31N 58°55' E 005°32'612.3
2017-Jun-17 12:00N 58°49' E 005°27'713.9
2017-Jun-17 11:31N 58°43' E 005°21'816.3
2017-Jun-17 11:01N 58°35' E 005°21'816.9
2017-Jun-17 10:31N 58°27' E 005°22'816.5
2017-Jun-17 10:00N 58°19' E 005°27'816.7
2017-Jun-17 09:31N 58°11' E 005°33'816.6
2017-Jun-17 09:01N 58°03' E 005°38'2216.4
2017-Jun-17 07:41N 57°42' E 005°49'1316.0
2017-Jun-17 06:51N 57°29' E 005°56'11215.7
2017-Jun-16 23:42N 55°41' E 006°46'315.3
2017-Jun-16 23:30N 55°38' E 006°48'815.4
2017-Jun-16 23:00N 55°31' E 006°51'815.4
2017-Jun-16 22:30N 55°23' E 006°54'815.5
2017-Jun-16 22:01N 55°16' E 006°58'815.8
2017-Jun-16 21:31N 55°08' E 007°02'815.9
2017-Jun-16 20:58N 55°00' E 007°06'715.9
2017-Jun-16 20:30N 54°53' E 007°09'816.0
2017-Jun-16 20:00N 54°45' E 007°13'816.2
2017-Jun-16 19:31N 54°37' E 007°17'5613.3
2017-Jun-16 15:17N 53°49' E 008°07'413.1
2017-Jun-16 15:00N 53°46' E 008°10'1211.9
2017-Jun-16 14:00N 53°39' E 008°25'4 9.1
2017-Jun-16 13:31N 53°36' E 008°31'2 4.8
2017-Jun-16 12:59N 53°34' E 008°33'0 0.0
2017-Jun-16 12:30N 53°34' E 008°33'0 0.0
2017-Jun-16 11:59N 53°34' E 008°33'0 0.0
2017-Jun-16 11:28N 53°34' E 008°33'0 0.0
2017-Jun-16 10:58N 53°34' E 008°33'0 0.0
2017-Jun-16 10:28N 53°34' E 008°33'0 0.0
2017-Jun-16 09:58N 53°34' E 008°33'0 0.0
2017-Jun-16 09:28N 53°34' E 008°33'0 0.0
2017-Jun-16 09:00N 53°34' E 008°33'0 0.0
2017-Jun-16 08:30N 53°34' E 008°33'0 0.0
2017-Jun-16 07:57N 53°34' E 008°33'0 0.0
2017-Jun-16 07:30N 53°34' E 008°33'1 2.1
2017-Jun-16 07:00N 53°34' E 008°32'510.3
2017-Jun-16 06:30N 53°38' E 008°26'612.0
2017-Jun-16 06:00N 53°42' E 008°19'612.4
2017-Jun-16 05:30N 53°46' E 008°11'612.6
2017-Jun-16 05:00N 53°50' E 008°03'813.0
2017-Jun-16 04:25N 53°52' E 007°50'1112.0
2017-Jun-16 03:32N 53°59' E 007°36'114.5
2017-Jun-16 03:27N 53°60' E 007°36'715.6
2017-Jun-16 03:00N 54°06' E 007°30'3416.3
2017-Jun-16 00:53N 54°39' E 007°14'616.1
2017-Jun-16 00:30N 54°45' E 007°13'816.4
2017-Jun-16 00:01N 54°53' E 007°10'816.6
2017-Jun-15 23:30N 55°01' E 007°07'816.5
2017-Jun-15 23:01N 55°09' E 007°03'816.3
2017-Jun-15 22:30N 55°17' E 006°60'816.2
2017-Jun-15 22:01N 55°25' E 006°56'816.2
2017-Jun-15 21:30N 55°33' E 006°52'816.1
2017-Jun-15 21:01N 55°40' E 006°48'916.1
2017-Jun-15 20:27N 55°49' E 006°43'816.0
2017-Jun-15 19:59N 55°56' E 006°39'815.9
2017-Jun-15 19:27N 56°04' E 006°35'7815.7
2017-Jun-15 14:29N 57°19' E 005°53'4015.7
2017-Jun-15 11:56N 57°57' E 005°31'1115.6
2017-Jun-15 11:14N 58°07' E 005°25'615.5
2017-Jun-15 10:49N 58°13' E 005°21'515.7
2017-Jun-15 10:30N 58°18' E 005°17'814.9
2017-Jun-15 09:58N 58°26' E 005°16'715.4
2017-Jun-15 09:30N 58°33' E 005°18'714.9
2017-Jun-15 09:00N 58°40' E 005°21'714.3
2017-Jun-15 08:31N 58°47' E 005°24'713.2
2017-Jun-15 08:00N 58°52' E 005°31'612.5
2017-Jun-15 07:30N 58°59' E 005°33'4 8.0
2017-Jun-15 07:00N 59°02' E 005°37'611.8
2017-Jun-15 06:30N 59°01' E 005°49'714.5
2017-Jun-15 06:00N 58°56' E 005°60'3 6.8
2017-Jun-15 05:30N 58°55' E 006°06'5 9.0
2017-Jun-15 05:00N 58°59' E 006°12'2 4.8
2017-Jun-15 04:30N 58°57' E 006°08'4 8.0
2017-Jun-15 04:00N 58°54' E 006°03'510.5
2017-Jun-15 03:30N 58°58' E 005°56'611.7
2017-Jun-15 03:00N 59°02' E 005°48'510.8
2017-Jun-15 02:30N 59°02' E 005°37'611.6
2017-Jun-15 02:00N 59°06' E 005°29'510.3
2017-Jun-15 01:30N 59°04' E 005°20'611.6
2017-Jun-15 01:01N 59°02' E 005°09'611.6
2017-Jun-15 00:30N 59°06' E 005°01'713.0
2017-Jun-15 00:00N 59°10' E 004°50'2212.0
2017-Jun-14 22:12N 59°31' E 004°42'313.0
2017-Jun-14 22:00N 59°34' E 004°43'612.8
2017-Jun-14 21:30N 59°40' E 004°45'612.7
2017-Jun-14 21:00N 59°46' E 004°48'613.0
2017-Jun-14 20:30N 59°53' E 004°50'713.2
2017-Jun-14 20:00N 59°59' E 004°51'713.1
2017-Jun-14 19:30N 60°05' E 004°53'510.9
2017-Jun-14 19:00N 60°09' E 005°02'510.4
2017-Jun-14 18:30N 60°12' E 005°11'510.9
2017-Jun-14 18:00N 60°17' E 005°11'510.6
2017-Jun-14 17:30N 60°23' E 005°10'5 9.0
2017-Jun-14 17:00N 60°24' E 005°19'0 0.0
2017-Jun-14 16:30N 60°24' E 005°19'0 0.0
2017-Jun-14 16:00N 60°24' E 005°19'0 0.0
2017-Jun-14 15:29N 60°24' E 005°19'0 0.0
2017-Jun-14 14:59N 60°24' E 005°19'0 0.0
2017-Jun-14 13:59N 60°24' E 005°19'0 0.0
2017-Jun-14 13:29N 60°24' E 005°19'0 0.0
2017-Jun-14 12:58N 60°24' E 005°19'0 0.0
2017-Jun-14 12:28N 60°24' E 005°19'0 0.0
2017-Jun-14 11:58N 60°24' E 005°19'0 0.0
2017-Jun-14 11:28N 60°24' E 005°19'0 0.0
2017-Jun-14 10:58N 60°24' E 005°19'0 0.0
2017-Jun-14 10:30N 60°24' E 005°19'0 0.0
2017-Jun-14 10:00N 60°24' E 005°19'0 0.0
2017-Jun-14 09:30N 60°24' E 005°19'0 0.0
2017-Jun-14 09:00N 60°24' E 005°19'0 0.0
2017-Jun-14 08:23N 60°24' E 005°19'0 0.0
2017-Jun-14 07:59N 60°24' E 005°19'1 1.4
2017-Jun-14 07:30N 60°24' E 005°17'5 9.7
2017-Jun-14 07:00N 60°24' E 005°07'611.3
2017-Jun-14 06:30N 60°29' E 004°60'713.8
2017-Jun-14 06:00N 60°35' E 004°54'714.1
2017-Jun-14 05:30N 60°41' E 004°49'511.1
2017-Jun-14 05:00N 60°45' E 004°40'713.5
2017-Jun-14 04:31N 60°48' E 004°28'714.7
2017-Jun-14 04:00N 60°55' E 004°23'815.0
2017-Jun-14 03:30N 61°02' E 004°18'5214.1
2017-Jun-13 23:50N 61°54' E 004°25'515.5
2017-Jun-13 23:30N 61°58' E 004°31'815.4
2017-Jun-13 23:00N 62°05' E 004°40'815.3
2017-Jun-13 22:30N 62°11' E 004°50'714.8
2017-Jun-13 22:00N 62°17' E 005°00'714.7
2017-Jun-13 21:30N 62°22' E 005°11'714.9
2017-Jun-13 21:00N 62°26' E 005°24'715.0
2017-Jun-13 20:30N 62°30' E 005°38'713.8
2017-Jun-13 20:01N 62°28' E 005°52'611.9
2017-Jun-13 19:30N 62°25' E 006°03'713.1
2017-Jun-13 19:00N 62°24' E 006°17'714.0
2017-Jun-13 18:30N 62°25' E 006°32'713.7
2017-Jun-13 18:00N 62°27' E 006°47'612.2
2017-Jun-13 17:29N 62°23' E 006°55'713.7
2017-Jun-13 17:00N 62°16' E 007°01'713.4
2017-Jun-13 16:30N 62°10' E 007°00'4 1.7
2017-Jun-13 14:00N 62°07' E 007°07'2 4.4
2017-Jun-13 13:30N 62°06' E 007°11'0 0.1
2017-Jun-13 13:00N 62°06' E 007°11'0 0.0
2017-Jun-13 12:30N 62°06' E 007°11'0 0.0
2017-Jun-13 11:59N 62°06' E 007°11'0 0.0
2017-Jun-13 11:29N 62°06' E 007°11'0 0.0
2017-Jun-13 10:59N 62°06' E 007°11'0 0.0
2017-Jun-13 10:28N 62°06' E 007°11'0 0.0
2017-Jun-13 09:58N 62°06' E 007°11'0 0.0
2017-Jun-13 09:28N 62°06' E 007°11'0 0.0
2017-Jun-13 08:58N 62°06' E 007°11'0 0.1
2017-Jun-13 08:28N 62°06' E 007°11'0 0.0
2017-Jun-13 08:00N 62°06' E 007°11'0 0.0
2017-Jun-13 07:30N 62°06' E 007°11'2 4.2
2017-Jun-13 07:00N 62°07' E 007°07'5 9.0
2017-Jun-13 06:30N 62°07' E 006°57'612.6
2017-Jun-13 06:00N 62°13' E 007°01'713.8
2017-Jun-13 05:30N 62°20' E 006°57'713.8
2017-Jun-13 05:00N 62°26' E 006°51'714.2
2017-Jun-13 04:30N 62°26' E 006°37'815.0
2017-Jun-13 04:00N 62°24' E 006°21'714.5
2017-Jun-13 03:30N 62°24' E 006°05'612.4
2017-Jun-13 03:00N 62°27' E 005°55'713.7
2017-Jun-13 02:30N 62°32' E 005°43'815.2
2017-Jun-13 02:00N 62°39' E 005°46'  

Dump ship's entire track history